Time;durP1;ratioP1;P1;durP2;ratioP2;P2;SDS_P1;SDS_P2;PMS_P1;PMS_P2;Temp;Humidity;BMP_temperature;BMP_pressure;BME280_temperature;BME280_humidity;BME280_pressure;Samples;Min_cycle;Max_cycle;Signal;HPM_P1;HPM_P2
2022/01/30 00:01:19;;;;;;;31.63;3.67;;;;;;;5.93;86.82;102530.53;5091785;28;20048;-44
2022/01/30 00:03:48;;;;;;;24.63;3.75;;;;;;;5.91;87.10;102522.72;5091991;28;20079;-46
2022/01/30 00:06:16;;;;;;;21.88;3.20;;;;;;;5.91;87.17;102524.47;5090833;28;20053;-46
2022/01/30 00:08:44;;;;;;;24.65;3.75;;;;;;;5.90;88.29;102515.81;5092083;28;20128;-45
2022/01/30 00:11:18;;;;;;;25.20;3.40;;;;;;;5.86;88.49;102510.66;5091840;28;20384;-45
2022/01/30 00:13:46;;;;;;;18.33;3.13;;;;;;;5.87;87.21;102508.00;5094716;28;20403;-45
2022/01/30 00:16:17;;;;;;;23.92;3.63;;;;;;;5.82;88.23;102515.09;5095844;28;20101;-47
2022/01/30 00:18:54;;;;;;;17.85;3.78;;;;;;;5.77;88.35;102511.69;5095420;28;20050;-46
2022/01/30 00:21:33;;;;;;;24.23;3.40;;;;;;;5.75;88.11;102516.94;5095208;28;20051;-45
2022/01/30 00:24:06;;;;;;;17.92;3.15;;;;;;;5.72;88.97;102505.69;5095789;28;20048;-48
2022/01/30 00:26:37;;;;;;;23.33;3.58;;;;;;;5.72;88.74;102511.75;5095347;28;20044;-47
2022/01/30 00:29:06;;;;;;;23.85;4.07;;;;;;;5.68;88.73;102509.25;5095359;28;20036;-46
2022/01/30 00:31:38;;;;;;;22.15;3.08;;;;;;;5.73;88.42;102520.47;5093888;28;20044;-46
2022/01/30 00:34:26;;;;;;;18.10;3.55;;;;;;;5.65;89.63;102532.78;5095135;28;20051;-47
2022/01/30 00:36:54;;;;;;;22.73;3.75;;;;;;;5.59;88.95;102528.56;5094770;28;20060;-48
2022/01/30 00:39:22;;;;;;;24.15;3.78;;;;;;;5.57;89.36;102531.16;5094581;28;20048;-47
2022/01/30 00:41:51;;;;;;;32.08;5.03;;;;;;;5.54;88.82;102528.59;5094736;28;20150;-50
2022/01/30 00:44:20;;;;;;;27.52;3.55;;;;;;;5.57;89.00;102532.91;5094833;28;20486;-48
2022/01/30 00:46:48;;;;;;;19.92;3.50;;;;;;;5.53;89.23;102539.06;5095018;28;20676;-45
2022/01/30 00:49:16;;;;;;;23.35;3.53;;;;;;;5.55;88.07;102539.94;5094890;28;20054;-46
2022/01/30 00:51:44;;;;;;;28.60;4.15;;;;;;;5.55;88.58;102545.16;5094788;28;20098;-48
2022/01/30 00:54:12;;;;;;;21.58;3.53;;;;;;;5.62;88.47;102559.81;5094958;28;20040;-48
2022/01/30 00:56:40;;;;;;;24.75;2.97;;;;;;;5.57;88.51;102554.66;5093331;28;20097;-48
2022/01/30 00:59:10;;;;;;;25.50;3.65;;;;;;;5.55;89.16;102547.75;5094747;28;20055;-48
2022/01/30 01:01:38;;;;;;;21.88;3.38;;;;;;;5.51;89.33;102551.31;5094491;28;20116;-48
2022/01/30 01:04:06;;;;;;;19.55;3.50;;;;;;;5.50;89.42;102539.13;5094704;28;20048;-49
2022/01/30 01:06:36;;;;;;;28.85;3.33;;;;;;;5.49;88.28;102543.47;5094643;28;20719;-51
2022/01/30 01:09:05;;;;;;;23.25;3.75;;;;;;;5.44;88.81;102537.50;5094626;28;20048;-50
2022/01/30 01:25:25;;;;;;;27.40;3.92;;;;;;;5.50;88.76;102555.66;5093390;28;20502;-57
2022/01/30 01:27:53;;;;;;;17.70;3.00;;;;;;;5.56;85.75;102547.72;5094191;28;20082;-57
2022/01/30 01:30:23;;;;;;;16.95;2.88;;;;;;;5.57;85.58;102544.22;5094176;28;20070;-57
2022/01/30 01:32:51;;;;;;;15.40;2.88;;;;;;;5.54;86.49;102552.09;5093981;28;20036;-56
2022/01/30 01:35:20;;;;;;;18.17;2.55;;;;;;;5.52;86.82;102553.88;5093976;28;20044;-56
2022/01/30 01:37:53;;;;;;;16.00;2.47;;;;;;;5.52;85.77;102534.75;5093886;28;20044;-56
2022/01/30 01:40:23;;;;;;;16.38;1.88;;;;;;;5.57;84.49;102552.03;5094054;28;20409;-56
2022/01/30 01:42:52;;;;;;;15.13;2.65;;;;;;;5.56;85.22;102545.13;5093803;28;20044;-56
2022/01/30 01:45:21;;;;;;;14.30;2.42;;;;;;;5.56;85.70;102550.34;5093563;28;20411;-48
2022/01/30 01:47:51;;;;;;;15.02;1.90;;;;;;;5.59;86.02;102544.22;5093685;28;20097;-47
2022/01/30 01:50:38;;;;;;;16.38;3.40;;;;;;;5.54;86.45;102536.44;5094007;28;20093;-44
2022/01/30 01:53:08;;;;;;;16.77;2.80;;;;;;;5.50;87.18;102544.34;5093935;28;20034;-55
2022/01/30 01:55:37;;;;;;;15.95;2.45;;;;;;;5.46;88.28;102546.16;5090340;28;20487;-56
2022/01/30 01:58:05;;;;;;;14.35;2.13;;;;;;;5.41;88.99;102540.13;5089726;28;20075;-56
2022/01/30 02:00:34;;;;;;;15.73;3.00;;;;;;;5.38;89.56;102545.41;5093452;28;20521;-57
2022/01/30 02:03:05;;;;;;;15.25;2.42;;;;;;;5.36;89.96;102547.19;5093656;28;20135;-57
2022/01/30 02:05:35;;;;;;;22.10;3.22;;;;;;;5.33;89.89;102555.06;5093417;28;20138;-57
2022/01/30 02:08:28;;;;;;;21.35;3.05;;;;;;;5.33;90.31;102565.50;5092727;28;20051;-57
2022/01/30 02:11:01;;;;;;;18.23;2.58;;;;;;;5.25;91.62;102555.19;5092967;28;20048;-58
2022/01/30 02:25:25;;;;;;;19.05;2.63;;;;;;;5.31;93.86;102585.53;5093045;28;20048;-57
2022/01/30 02:27:57;;;;;;;21.00;2.80;;;;;;;5.34;94.47;102575.06;5093015;28;20043;-53
2022/01/30 02:30:31;;;;;;;16.20;2.30;;;;;;;5.25;94.05;102574.31;5093258;28;20044;-56
2022/01/30 02:32:59;;;;;;;17.23;2.03;;;;;;;5.28;92.28;102583.84;5092993;28;20386;-55
2022/01/30 02:35:28;;;;;;;10.07;1.88;;;;;;;5.23;92.73;102578.66;5092350;28;20093;-56
2022/01/30 02:37:59;;;;;;;10.75;1.80;;;;;;;5.29;92.88;102576.84;5091434;28;20150;-57
2022/01/30 02:40:31;;;;;;;15.27;2.05;;;;;;;5.22;93.47;102569.16;5087995;28;20627;-57
2022/01/30 02:42:59;;;;;;;19.15;2.22;;;;;;;5.22;93.92;102584.78;5089737;28;20040;-56
2022/01/30 02:45:31;;;;;;;11.05;1.75;;;;;;;5.18;93.01;102584.84;5092495;28;20051;-57
2022/01/30 02:48:13;;;;;;;15.85;2.08;;;;;;;5.19;93.14;102578.75;5092774;28;20082;-46
2022/01/30 02:50:52;;;;;;;13.10;1.70;;;;;;;5.20;92.30;102588.31;5092931;28;20493;-45
2022/01/30 02:53:29;;;;;;;12.07;1.75;;;;;;;5.11;93.41;102576.25;5092475;28;20407;-45
2022/01/30 02:55:59;;;;;;;13.43;2.33;;;;;;;5.07;91.89;102588.50;5092768;28;20067;-53
2022/01/30 02:58:27;;;;;;;9.25;2.00;;;;;;;5.07;91.47;102577.19;5089889;28;20074;-57
2022/01/30 03:00:55;;;;;;;15.95;2.55;;;;;;;5.04;91.07;102605.91;5089149;28;20040;-57
2022/01/30 03:03:23;;;;;;;14.95;2.15;;;;;;;5.00;89.94;102610.28;5092462;28;20043;-56
2022/01/30 03:05:52;;;;;;;14.68;2.45;;;;;;;4.97;90.15;102618.16;5092447;28;20048;-56
2022/01/30 03:08:20;;;;;;;13.88;2.38;;;;;;;4.97;90.86;102623.38;5092785;28;20390;-56
2022/01/30 03:10:49;;;;;;;15.27;1.98;;;;;;;4.97;91.00;102633.81;5092667;28;20524;-57
2022/01/30 03:13:19;;;;;;;12.15;2.17;;;;;;;4.94;91.13;102638.22;5091916;28;20044;-49
2022/01/30 03:15:47;;;;;;;15.07;2.38;;;;;;;4.88;91.50;102633.94;5087658;28;20080;-45
2022/01/30 03:18:15;;;;;;;14.00;2.05;;;;;;;4.83;93.02;102635.75;5088883;28;20044;-45
2022/01/30 03:20:43;;;;;;;12.68;2.00;;;;;;;4.85;92.82;102645.28;5092540;28;20048;-44
2022/01/30 03:23:11;;;;;;;20.02;2.90;;;;;;;4.81;93.70;102640.97;5090955;28;20041;-46
2022/01/30 03:25:39;;;;;;;16.13;1.98;;;;;;;4.82;92.96;102639.25;5092220;28;20052;-45
2022/01/30 03:28:07;;;;;;;15.23;2.20;;;;;;;4.78;92.87;102641.00;5092376;28;20457;-45
2022/01/30 03:30:38;;;;;;;15.63;2.83;;;;;;;4.76;92.10;102648.00;5092296;28;20055;-48
2022/01/30 03:33:06;;;;;;;15.93;2.60;;;;;;;4.71;92.65;102639.38;5090395;28;20136;-46
2022/01/30 03:35:34;;;;;;;11.70;2.08;;;;;;;4.70;92.67;102655.88;5088265;28;20510;-44
2022/01/30 03:38:02;;;;;;;16.10;3.10;;;;;;;4.70;92.28;102656.75;5090824;28;20057;-45
2022/01/30 03:40:30;;;;;;;14.68;2.47;;;;;;;4.65;92.37;102650.72;5092423;28;20073;-46
2022/01/30 03:42:59;;;;;;;12.75;2.13;;;;;;;4.66;91.35;102662.00;5091850;28;20046;-46
2022/01/30 03:45:27;;;;;;;17.75;2.72;;;;;;;4.59;91.74;102663.81;5091471;28;20515;-46
2022/01/30 03:47:57;;;;;;;13.68;2.80;;;;;;;4.56;91.62;102661.25;5091427;28;20056;-46
2022/01/30 03:50:25;;;;;;;18.85;2.42;;;;;;;4.52;92.01;102668.22;5092106;28;20043;-47
2022/01/30 03:52:54;;;;;;;16.85;2.22;;;;;;;4.54;92.05;102663.00;5095223;28;20052;-48
2022/01/30 03:55:22;;;;;;;17.13;2.78;;;;;;;4.54;90.76;102666.47;5096123;28;20051;-49
2022/01/30 03:57:52;;;;;;;15.10;2.00;;;;;;;4.54;90.02;102668.22;5095883;28;20474;-47
2022/01/30 04:00:20;;;;;;;12.38;2.08;;;;;;;4.57;89.76;102661.22;5096004;28;20048;-48
2022/01/30 04:02:48;;;;;;;12.27;2.47;;;;;;;4.57;89.98;102668.19;5095686;28;20356;-49
2022/01/30 04:05:18;;;;;;;9.25;1.67;;;;;;;4.50;90.00;102675.22;5091913;28;20056;-47
2022/01/30 04:07:47;;;;;;;13.35;1.88;;;;;;;4.47;89.83;102680.47;5092744;28;20066;-48
2022/01/30 04:10:16;;;;;;;17.88;2.10;;;;;;;4.45;89.97;102683.97;5095922;28;20044;-49
2022/01/30 04:12:44;;;;;;;11.77;2.38;;;;;;;4.45;89.66;102687.41;5095514;28;20040;-50
2022/01/30 04:15:14;;;;;;;13.60;1.88;;;;;;;4.42;90.48;102690.06;5095698;28;20040;-47
2022/01/30 04:17:42;;;;;;;14.68;1.95;;;;;;;4.42;90.96;102697.88;5095651;28;20517;-48
2022/01/30 04:20:11;;;;;;;14.40;1.90;;;;;;;4.46;91.13;102694.38;5091526;28;20676;-57
2022/01/30 04:22:41;;;;;;;10.93;2.15;;;;;;;4.52;91.41;102701.25;5092405;28;20047;-56
2022/01/30 04:25:09;;;;;;;17.67;2.63;;;;;;;4.52;91.15;102699.50;5095501;28;20052;-57
2022/01/30 04:27:38;;;;;;;12.57;2.40;;;;;;;4.55;91.53;102694.28;5095271;28;20097;-45
2022/01/30 04:30:09;;;;;;;15.27;2.53;;;;;;;4.51;92.71;102708.22;5095296;28;20056;-56
2022/01/30 04:32:41;;;;;;;17.15;2.65;;;;;;;4.50;92.00;102700.38;5094840;28;20541;-57
2022/01/30 04:35:14;;;;;;;10.30;2.03;;;;;;;4.49;92.07;102683.91;5091135;28;20404;-55
2022/01/30 04:37:57;;;;;;;14.48;1.90;;;;;;;4.49;91.38;102683.91;5093418;28;20048;-56
2022/01/30 04:55:03;;;;;;;15.98;1.70;;;;;;;4.51;91.52;102689.97;5094695;28;20047;-58
2022/01/30 04:57:39;;;;;;;11.18;1.48;;;;;;;4.59;90.92;102699.44;5094697;28;20051;-56
2022/01/30 05:00:23;;;;;;;19.75;2.47;;;;;;;4.53;91.06;102692.56;5089964;28;20487;-57
2022/01/30 05:02:59;;;;;;;12.63;1.63;;;;;;;4.50;91.42;102693.47;5092205;28;20412;-56
2022/01/30 05:08:13;;;;;;;14.80;2.25;;;;;;;4.47;91.45;102690.88;5094416;28;20052;-56
2022/01/30 05:10:43;;;;;;;16.98;2.50;;;;;;;4.46;91.75;102694.38;5094870;28;20406;-57
2022/01/30 05:13:16;;;;;;;17.77;2.38;;;;;;;4.40;92.26;102689.19;5093113;28;20048;-56
2022/01/30 05:15:45;;;;;;;15.82;2.00;;;;;;;4.44;91.79;102696.09;5090460;28;20166;-57
2022/01/30 05:18:17;;;;;;;17.98;2.25;;;;;;;4.48;91.40;102692.59;5093434;28;20044;-55
2022/01/30 05:20:46;;;;;;;19.55;2.40;;;;;;;4.51;90.29;102702.13;5094443;28;20051;-57
2022/01/30 05:23:16;;;;;;;21.33;2.92;;;;;;;4.51;90.39;102692.59;5094224;28;20086;-55
2022/01/30 05:25:46;;;;;;;17.13;2.75;;;;;;;4.56;90.56;102701.19;5094386;28;20048;-56
2022/01/30 05:28:15;;;;;;;17.90;2.42;;;;;;;4.55;90.01;102690.78;5094425;28;20119;-56
2022/01/30 05:30:44;;;;;;;16.02;2.67;;;;;;;4.53;90.38;102697.78;5094041;28;20048;-56
2022/01/30 05:33:12;;;;;;;14.25;2.00;;;;;;;4.51;90.55;102695.19;5090587;28;20048;-56
2022/01/30 05:35:41;;;;;;;13.20;2.10;;;;;;;4.51;90.22;102705.63;5090743;28;20106;-56
2022/01/30 05:38:10;;;;;;;11.88;2.38;;;;;;;4.54;90.53;102717.72;5093224;28;20050;-56
2022/01/30 05:40:38;;;;;;;17.70;2.30;;;;;;;4.53;90.33;102705.59;5091909;28;20079;-55
2022/01/30 05:43:08;;;;;;;13.48;2.25;;;;;;;4.61;90.11;102705.50;5089963;28;20055;-57
2022/01/30 05:45:40;;;;;;;15.20;2.25;;;;;;;4.60;90.26;102711.59;5093454;28;20054;-57
2022/01/30 05:48:15;;;;;;;17.10;2.60;;;;;;;4.51;90.78;102717.75;5093770;28;20056;-55
2022/01/30 05:50:44;;;;;;;11.35;1.75;;;;;;;4.47;90.92;102719.56;5093143;28;20126;-56
2022/01/30 05:53:13;;;;;;;15.38;2.83;;;;;;;4.49;90.45;102715.16;5090724;28;20052;-56
2022/01/30 05:55:42;;;;;;;10.05;1.85;;;;;;;4.47;91.13;102714.34;5088906;28;20553;-57
2022/01/30 05:58:11;;;;;;;16.00;2.10;;;;;;;4.50;91.31;102708.22;5093713;28;20048;-54
2022/01/30 06:00:39;;;;;;;15.15;2.30;;;;;;;4.49;91.96;102715.16;5093697;28;20406;-56
2022/01/30 06:03:07;;;;;;;15.68;2.72;;;;;;;4.46;91.60;102717.81;5091836;28;20052;-57
2022/01/30 06:05:36;;;;;;;13.30;2.17;;;;;;;4.52;91.70;102725.56;5089713;28;20112;-48
2022/01/30 06:08:12;;;;;;;16.33;2.22;;;;;;;4.54;92.07;102722.94;5092341;28;20071;-45
2022/01/30 06:10:40;;;;;;;19.60;3.33;;;;;;;4.52;92.48;102720.34;5093293;28;20051;-46
2022/01/30 06:13:08;;;;;;;16.45;2.47;;;;;;;4.55;91.98;102725.56;5093579;28;20094;-46
2022/01/30 06:15:37;;;;;;;14.48;2.25;;;;;;;4.56;92.31;102732.47;5091600;28;20518;-44
2022/01/30 06:18:05;;;;;;;19.13;2.47;;;;;;;4.56;93.37;102742.88;5090009;28;20044;-48
2022/01/30 06:20:34;;;;;;;17.83;2.58;;;;;;;4.52;94.32;102749.00;5091645;28;20040;-45
2022/01/30 06:23:02;;;;;;;20.80;2.42;;;;;;;4.56;94.74;102753.31;5093162;28;20414;-48
2022/01/30 06:25:30;;;;;;;14.20;2.38;;;;;;;4.50;95.30;102761.22;5091942;28;20040;-49
2022/01/30 06:27:58;;;;;;;19.80;3.55;;;;;;;4.47;94.94;102745.59;5089343;28;20142;-45
2022/01/30 06:30:26;;;;;;;18.48;3.25;;;;;;;4.50;95.37;102752.50;5091236;28;20448;-46
2022/01/30 06:32:55;;;;;;;14.48;2.70;;;;;;;4.44;95.53;102756.03;5089946;28;20048;-50
2022/01/30 06:35:24;;;;;;;17.88;2.78;;;;;;;4.39;95.66;102763.91;5089016;28;20051;-46
2022/01/30 06:37:52;;;;;;;19.92;3.13;;;;;;;4.38;96.07;102763.91;5093142;28;20048;-46
2022/01/30 06:40:20;;;;;;;21.25;2.72;;;;;;;4.35;96.32;102763.94;5093287;28;20067;-45
2022/01/30 06:42:48;;;;;;;23.75;4.28;;;;;;;4.35;96.59;102763.94;5092948;28;20048;-45
2022/01/30 06:45:18;;;;;;;20.20;2.80;;;;;;;4.32;97.12;102769.16;5090235;28;20060;-46
2022/01/30 06:47:47;;;;;;;21.25;3.13;;;;;;;4.25;97.46;102765.75;5088896;28;20085;-45
2022/01/30 06:50:17;;;;;;;19.30;3.47;;;;;;;4.23;97.19;102770.97;5092705;28;20122;-46
2022/01/30 06:52:45;;;;;;;18.42;2.70;;;;;;;4.25;97.50;102767.50;5093028;28;20051;-48
2022/01/30 06:55:13;;;;;;;23.60;4.15;;;;;;;4.21;97.56;102777.94;5092722;28;20048;-45
2022/01/30 06:57:45;;;;;;;20.85;3.10;;;;;;;4.21;97.54;102775.34;5092474;28;20044;-47
2022/01/30 07:00:15;;;;;;;20.33;2.60;;;;;;;4.18;97.75;102777.09;5092665;28;20055;-45
2022/01/30 07:02:43;;;;;;;25.05;3.35;;;;;;;4.11;98.39;102781.47;5092717;28;20109;-48
2022/01/30 07:05:12;;;;;;;17.60;2.47;;;;;;;4.13;98.35;102778.88;5090283;28;20052;-47
2022/01/30 07:07:41;;;;;;;17.25;2.72;;;;;;;4.13;98.13;102792.78;5087802;28;20044;-49
2022/01/30 07:10:10;;;;;;;16.35;2.60;;;;;;;4.08;98.81;102797.13;5089813;28;20075;-47
2022/01/30 07:12:38;;;;;;;15.77;3.38;;;;;;;4.13;98.62;102803.19;5092606;28;20369;-50
2022/01/30 07:15:07;;;;;;;28.17;3.85;;;;;;;4.12;98.89;102808.38;5088749;28;20048;-50
2022/01/30 07:17:35;;;;;;;14.82;2.95;;;;;;;4.16;98.87;102807.47;5089489;28;20078;-45
2022/01/30 07:20:04;;;;;;;17.08;3.00;;;;;;;4.15;99.28;102806.63;5091889;28;20055;-45
2022/01/30 07:22:32;;;;;;;18.65;4.75;;;;;;;4.14;99.24;102807.50;5093376;28;20032;-47
2022/01/30 07:25:02;;;;;;;16.80;3.25;;;;;;;4.13;98.73;102813.59;5096507;28;20098;-47
2022/01/30 07:27:30;;;;;;;14.75;2.35;;;;;;;4.17;97.95;102817.03;5096481;28;20062;-44
2022/01/30 07:29:58;;;;;;;24.02;3.03;;;;;;;4.16;98.43;102821.38;5096592;28;20048;-51
2022/01/30 07:32:28;;;;;;;23.52;3.75;;;;;;;4.16;98.21;102829.19;5096469;28;20781;-46
2022/01/30 07:34:56;;;;;;;19.17;3.08;;;;;;;4.12;98.34;102829.22;5096321;28;20040;-47
2022/01/30 07:37:24;;;;;;;22.40;3.28;;;;;;;4.14;98.17;102830.94;5094029;28;20441;-47
2022/01/30 07:39:53;;;;;;;16.42;2.08;;;;;;;4.12;97.80;102837.91;5091233;28;20367;-47
2022/01/30 07:42:22;;;;;;;25.30;3.47;;;;;;;4.10;97.28;102837.03;5096187;28;20062;-44
2022/01/30 07:44:50;;;;;;;21.50;3.35;;;;;;;4.04;98.02;102837.94;5095607;28;20056;-54
2022/01/30 07:47:18;;;;;;;25.90;3.08;;;;;;;4.01;98.54;102845.78;5096113;28;20048;-57
2022/01/30 07:49:51;;;;;;;21.38;3.22;;;;;;;4.04;97.76;102843.16;5096167;28;20036;-57
2022/01/30 07:52:20;;;;;;;20.05;3.13;;;;;;;4.08;97.65;102854.44;5096119;28;20059;-55
2022/01/30 07:54:48;;;;;;;34.60;3.47;;;;;;;4.09;96.87;102850.06;5095499;28;20044;-55
2022/01/30 07:57:18;;;;;;;16.23;2.90;;;;;;;4.13;97.19;102855.28;5095814;28;20497;-56
2022/01/30 07:59:48;;;;;;;22.35;2.70;;;;;;;4.15;96.00;102861.31;5096277;28;20101;-55
2022/01/30 08:02:16;;;;;;;22.25;4.13;;;;;;;4.15;96.11;102856.13;5095882;28;20051;-56
2022/01/30 08:04:44;;;;;;;17.60;3.67;;;;;;;4.23;96.52;102856.06;5095766;28;20109;-57
2022/01/30 08:07:13;;;;;;;19.48;3.33;;;;;;;4.18;95.92;102860.44;5095865;28;20055;-59
2022/01/30 08:09:41;;;;;;;24.58;3.83;;;;;;;4.25;96.06;102872.53;5096047;28;20048;-47
2022/01/30 08:12:10;;;;;;;16.83;2.53;;;;;;;4.24;95.43;102876.03;5095735;28;20056;-47
2022/01/30 08:14:38;;;;;;;20.15;3.08;;;;;;;4.26;95.59;102876.03;5095712;28;20052;-48
2022/01/30 08:17:08;;;;;;;18.23;3.22;;;;;;;4.27;95.40;102880.34;5095594;28;20051;-45
2022/01/30 08:19:36;;;;;;;25.85;3.42;;;;;;;4.33;94.74;102880.31;5095695;28;20048;-47
2022/01/30 08:22:07;;;;;;;21.08;3.88;;;;;;;4.34;94.91;102871.63;5096018;28;20564;-50
2022/01/30 08:24:35;;;;;;;19.77;3.50;;;;;;;4.32;94.78;102884.69;5095404;28;20052;-46
2022/01/30 08:27:04;;;;;;;22.65;3.95;;;;;;;4.37;94.72;102877.66;5095471;28;20044;-51
2022/01/30 08:29:32;;;;;;;20.17;3.47;;;;;;;4.39;94.29;102875.94;5094164;28;20048;-46
2022/01/30 08:32:01;;;;;;;17.60;2.85;;;;;;;4.40;94.36;102882.88;5095391;28;20511;-47
2022/01/30 08:34:31;;;;;;;22.30;3.42;;;;;;;4.39;93.53;102872.44;5095225;28;20105;-48
2022/01/30 08:36:59;;;;;;;17.27;2.90;;;;;;;4.42;94.01;102879.38;5095180;28;20064;-51
2022/01/30 08:39:27;;;;;;;25.15;3.78;;;;;;;4.48;93.32;102880.22;5095473;28;20109;-50
2022/01/30 08:41:55;;;;;;;25.23;4.25;;;;;;;4.52;92.59;102883.66;5095271;28;20044;-44
2022/01/30 08:44:23;;;;;;;18.38;2.90;;;;;;;4.54;92.88;102881.91;5094817;28;20058;-44
2022/01/30 08:46:51;;;;;;;15.57;2.50;;;;;;;4.59;93.56;102880.13;5094509;28;20066;-46
2022/01/30 08:49:19;;;;;;;28.30;3.58;;;;;;;4.61;93.98;102882.72;5095263;28;20115;-46
2022/01/30 08:51:49;;;;;;;23.17;3.55;;;;;;;4.61;92.42;102886.22;5095130;28;20561;-45
2022/01/30 08:54:18;;;;;;;22.67;3.85;;;;;;;4.66;93.68;102888.78;5095005;28;20101;-44
2022/01/30 08:56:46;;;;;;;24.60;3.67;;;;;;;4.68;92.74;102890.50;5094938;28;20054;-48
2022/01/30 08:59:14;;;;;;;23.60;3.13;;;;;;;4.74;92.03;102900.88;5094880;28;20055;-47
2022/01/30 09:01:42;;;;;;;24.98;4.60;;;;;;;4.81;91.71;102906.88;5094874;28;20044;-45
2022/01/30 09:04:11;;;;;;;21.58;3.28;;;;;;;4.80;91.25;102907.78;5094845;28;20112;-46
2022/01/30 09:06:39;;;;;;;24.75;3.42;;;;;;;4.90;92.02;102908.56;5094516;28;20028;-45
2022/01/30 09:09:09;;;;;;;18.25;3.45;;;;;;;5.06;92.15;102914.53;5094533;28;20135;-47
2022/01/30 09:11:37;;;;;;;17.85;3.33;;;;;;;5.16;92.31;102912.69;5094533;28;20071;-45
2022/01/30 09:14:07;;;;;;;20.77;3.08;;;;;;;5.17;91.81;102924.88;5094110;28;20054;-44
2022/01/30 09:16:35;;;;;;;18.50;2.70;;;;;;;5.23;92.03;102928.25;5094109;28;20597;-50
2022/01/30 09:19:21;;;;;;;16.75;3.20;;;;;;;5.42;91.27;102922.88;5094704;28;20044;-44
2022/01/30 09:21:51;;;;;;;19.40;3.25;;;;;;;5.59;89.83;102925.31;5094345;28;20494;-48
2022/01/30 09:24:20;;;;;;;20.52;4.43;;;;;;;5.71;89.66;102925.19;5094415;28;20070;-48
2022/01/30 09:26:48;;;;;;;23.25;3.78;;;;;;;5.88;88.25;102927.56;5094322;28;20044;-50
2022/01/30 09:29:16;;;;;;;18.88;3.92;;;;;;;5.97;85.48;102924.00;5094429;28;20043;-47
2022/01/30 09:32:00;;;;;;;28.57;3.60;;;;;;;6.15;85.54;102936.00;5094758;28;20490;-49
2022/01/30 09:34:29;;;;;;;27.45;3.85;;;;;;;6.25;85.56;102936.72;5094303;28;20461;-47
2022/01/30 09:36:58;;;;;;;25.20;4.30;;;;;;;6.36;83.31;102939.19;5094498;28;20429;-47
2022/01/30 09:39:27;;;;;;;23.33;3.78;;;;;;;6.37;82.29;102948.78;5094093;28;20036;-46
2022/01/30 09:41:56;;;;;;;21.40;4.22;;;;;;;6.26;81.25;102951.53;5094304;28;20048;-46
2022/01/30 09:44:24;;;;;;;23.05;4.05;;;;;;;6.36;82.65;102949.66;5094127;28;20405;-47
2022/01/30 09:46:52;;;;;;;17.92;4.32;;;;;;;6.52;81.32;102940.69;5093373;28;20040;-45
2022/01/30 09:49:24;;;;;;;21.63;3.80;;;;;;;6.77;80.66;102946.41;5094007;28;20040;-46
2022/01/30 09:51:53;;;;;;;21.30;3.70;;;;;;;7.01;81.04;102946.03;5093852;28;20051;-46
2022/01/30 09:54:22;;;;;;;27.70;3.95;;;;;;;7.00;78.67;102947.81;5093957;28;20036;-46
2022/01/30 09:56:51;;;;;;;17.45;3.47;;;;;;;6.88;80.07;102950.63;5093662;28;20062;-45
2022/01/30 09:59:19;;;;;;;26.70;4.07;;;;;;;6.87;79.56;102951.50;5093752;28;20118;-56
2022/01/30 10:01:47;;;;;;;19.55;2.92;;;;;;;6.79;78.82;102951.63;5093811;28;20490;-56
2022/01/30 10:04:16;;;;;;;27.83;4.38;;;;;;;6.98;77.92;102954.81;5093567;28;20036;-57
2022/01/30 10:06:57;;;;;;;26.38;4.38;;;;;;;7.49;76.51;102953.94;5093321;28;20120;-56
2022/01/30 10:09:29;;;;;;;17.70;3.58;;;;;;;7.39;75.65;102949.75;5093661;28;20048;-57
2022/01/30 10:12:14;;;;;;;26.70;4.15;;;;;;;7.74;74.56;102956.09;5093683;28;20482;-56
2022/01/30 10:14:53;;;;;;;25.52;4.03;;;;;;;7.84;74.43;102972.47;5093086;28;20044;-57
2022/01/30 10:17:31;;;;;;;22.75;3.67;;;;;;;7.57;73.98;102959.88;5093151;28;20040;-56
2022/01/30 10:20:12;;;;;;;21.73;4.05;;;;;;;7.52;75.78;102956.47;5093036;28;20135;-57
2022/01/30 10:22:49;;;;;;;22.58;3.70;;;;;;;7.51;75.74;102953.91;5093124;28;20505;-56
2022/01/30 10:25:22;;;;;;;23.42;3.90;;;;;;;7.53;73.69;102947.75;5093433;28;20052;-57
2022/01/30 10:28:06;;;;;;;22.02;4.38;;;;;;;7.44;72.45;102954.03;5093153;28;20040;-46
2022/01/30 10:30:41;;;;;;;21.13;3.28;;;;;;;7.44;72.58;102958.38;5093378;28;20123;-48
2022/01/30 10:33:12;;;;;;;26.13;4.57;;;;;;;7.48;73.20;102959.19;5093004;28;20048;-49
2022/01/30 10:35:57;;;;;;;25.13;4.43;;;;;;;7.32;72.88;102958.59;5092953;28;20613;-46
2022/01/30 10:38:27;;;;;;;26.52;3.88;;;;;;;7.25;73.64;102955.22;5092837;28;20044;-48
2022/01/30 10:40:58;;;;;;;23.20;4.15;;;;;;;7.30;73.42;102957.78;5092259;28;20048;-45
2022/01/30 10:43:50;;;;;;;21.40;4.07;;;;;;;7.51;72.64;102973.13;5093054;28;20456;-50
2022/01/30 10:46:19;;;;;;;23.50;3.47;;;;;;;7.47;72.30;102971.41;5092708;28;20044;-47
2022/01/30 10:48:53;;;;;;;20.13;3.95;;;;;;;7.43;73.30;102965.38;5092829;28;20058;-46
2022/01/30 10:51:21;;;;;;;20.98;3.60;;;;;;;7.25;72.05;102965.69;5092855;28;20059;-56
2022/01/30 10:53:51;;;;;;;24.75;4.20;;;;;;;7.26;72.37;102968.28;5092624;28;20051;-57
2022/01/30 10:56:20;;;;;;;22.98;3.35;;;;;;;7.54;70.33;102969.53;5092497;28;20044;-46
2022/01/30 10:59:11;;;;;;;24.77;3.63;;;;;;;7.79;70.17;102973.44;5092339;28;20054;-47
2022/01/30 11:01:41;;;;;;;22.33;3.60;;;;;;;8.14;69.23;102960.53;5092647;28;20055;-50
2022/01/30 11:04:21;;;;;;;21.77;3.83;;;;;;;8.23;68.33;102973.41;5092587;28;20048;-45
2022/01/30 11:06:50;;;;;;;21.05;3.47;;;;;;;8.08;68.92;102961.50;5092472;28;20044;-48
2022/01/30 11:09:23;;;;;;;22.27;3.55;;;;;;;8.07;69.23;102961.53;5092637;28;20094;-46
2022/01/30 11:11:56;;;;;;;24.35;4.95;;;;;;;8.04;68.22;102967.69;5092661;28;20040;-52
2022/01/30 11:14:37;;;;;;;24.50;4.90;;;;;;;7.93;67.94;102967.94;5092530;28;20040;-47
2022/01/30 11:17:08;;;;;;;17.30;2.95;;;;;;;8.19;68.94;102968.28;5092307;28;20044;-57
2022/01/30 11:19:38;;;;;;;23.80;3.15;;;;;;;8.18;67.75;102962.19;5092720;28;20090;-48
2022/01/30 11:22:09;;;;;;;31.23;4.55;;;;;;;7.87;67.82;102969.81;5092442;28;20071;-49
2022/01/30 11:24:46;;;;;;;25.67;4.93;;;;;;;7.99;68.02;102953.84;5092807;28;20071;-47
2022/01/30 11:27:15;;;;;;;25.85;4.10;;;;;;;7.85;68.14;102950.63;5092206;28;20371;-49
2022/01/30 11:29:46;;;;;;;22.27;3.95;;;;;;;7.84;67.35;102946.28;5092385;28;20043;-51
2022/01/30 11:32:15;;;;;;;26.40;4.43;;;;;;;7.83;68.21;102948.03;5092389;28;20052;-50
2022/01/30 11:34:44;;;;;;;27.60;4.55;;;;;;;7.90;67.14;102939.16;5092290;28;20051;-50
2022/01/30 11:37:15;;;;;;;21.17;4.05;;;;;;;7.82;66.74;102941.06;5092323;28;20032;-51
2022/01/30 11:39:45;;;;;;;24.23;3.97;;;;;;;7.97;68.11;102936.44;5092181;28;20094;-45
2022/01/30 11:42:18;;;;;;;25.75;3.85;;;;;;;8.22;67.37;102942.88;5092357;28;20048;-48
2022/01/30 11:44:48;;;;;;;19.98;3.97;;;;;;;8.05;63.39;102929.28;5092095;28;20132;-49
2022/01/30 11:47:24;;;;;;;19.13;3.58;;;;;;;7.89;63.88;102926.94;5092116;28;20119;-48
2022/01/30 11:50:09;;;;;;;24.65;4.45;;;;;;;7.69;63.92;102932.59;5092263;28;20040;-48
2022/01/30 11:52:55;;;;;;;23.10;4.32;;;;;;;7.89;63.05;102931.34;5091947;28;20044;-49
2022/01/30 11:55:49;;;;;;;23.48;3.80;;;;;;;7.73;62.27;102946.50;5092325;28;20482;-48
2022/01/30 11:58:35;;;;;;;20.15;3.60;;;;;;;7.69;63.01;102942.19;5091079;28;20483;-46
2022/01/30 12:01:07;;;;;;;19.15;3.35;;;;;;;7.74;64.43;102943.88;5090754;28;20062;-49
2022/01/30 12:03:36;;;;;;;20.38;3.50;;;;;;;7.78;62.38;102942.03;5092227;28;20101;-46
2022/01/30 12:06:31;;;;;;;17.67;3.25;;;;;;;7.73;62.10;102938.63;5092267;28;20044;-51
2022/01/30 12:09:00;;;;;;;23.80;4.13;;;;;;;7.75;62.72;102942.94;5093020;28;20044;-51
2022/01/30 12:12:07;;;;;;;19.38;3.65;;;;;;;7.76;61.66;102941.22;5095170;28;20059;-49
2022/01/30 12:14:54;;;;;;;26.55;4.70;;;;;;;7.93;63.38;102933.88;5095734;28;20048;-46
2022/01/30 12:17:50;;;;;;;24.23;3.55;;;;;;;8.05;64.58;102934.50;5095629;28;20044;-49
2022/01/30 12:20:20;;;;;;;18.73;3.30;;;;;;;8.00;62.89;102933.72;5095696;28;20056;-46
2022/01/30 12:22:48;;;;;;;27.23;4.00;;;;;;;7.83;63.44;102928.84;5095594;28;20044;-48
2022/01/30 12:25:42;;;;;;;25.52;3.88;;;;;;;7.91;63.55;102925.16;5095553;28;20071;-52